createdAt,value
2019-03-23T00:02:14.630Z,77.20
2019-03-23T00:04:45.278Z,77.40
2019-03-23T00:07:15.894Z,77.50
2019-03-23T00:09:46.489Z,77.50
2019-03-23T00:12:17.090Z,77.90
2019-03-23T00:14:47.762Z,78.00
2019-03-23T00:17:18.315Z,78.10
2019-03-23T00:19:48.926Z,78.30
2019-03-23T00:22:19.522Z,78.60
2019-03-23T00:24:50.155Z,78.90
2019-03-23T00:27:20.837Z,79.00
2019-03-23T00:29:51.437Z,79.00
2019-03-23T00:32:22.145Z,79.10
2019-03-23T00:34:52.767Z,79.20
2019-03-23T00:37:23.394Z,79.60
2019-03-23T00:39:53.981Z,79.70
2019-03-23T00:42:24.534Z,80.00
2019-03-23T00:47:37.128Z,80.10
2019-03-23T00:50:07.998Z,80.30
2019-03-23T00:52:38.731Z,80.50
2019-03-23T00:55:09.563Z,80.50
2019-03-23T00:57:40.228Z,80.90
2019-03-23T01:00:11.385Z,81.40
2019-03-23T01:02:42.203Z,81.40
2019-03-23T01:05:13.326Z,81.70
2019-03-23T01:07:44.090Z,81.60
2019-03-23T01:10:15.171Z,81.50
2019-03-23T01:12:45.845Z,81.60
2019-03-23T01:15:16.485Z,81.80
2019-03-23T01:17:47.105Z,82.20
2019-03-23T01:20:19.019Z,82.30
2019-03-23T01:22:49.662Z,82.50
2019-03-23T01:25:20.955Z,82.30
2019-03-23T01:27:51.787Z,82.50
2019-03-23T01:30:22.471Z,82.60
2019-03-23T01:32:53.159Z,82.70
2019-03-23T01:35:23.872Z,83.00
2019-03-23T01:37:54.553Z,83.10
2019-03-23T01:40:25.364Z,83.00
2019-03-23T01:42:55.933Z,83.80
2019-03-23T01:45:26.507Z,83.30
2019-03-23T01:47:57.051Z,83.50
2019-03-23T01:50:28.749Z,84.00
2019-03-23T01:52:59.262Z,84.00
2019-03-23T01:55:29.815Z,84.00
2019-03-23T01:58:00.361Z,84.00
2019-03-23T02:00:36.451Z,84.00
2019-03-23T02:03:07.004Z,84.30
2019-03-23T02:05:37.558Z,84.40
2019-03-23T02:08:08.082Z,84.40
2019-03-23T02:10:38.649Z,84.60
2019-03-23T02:13:09.191Z,84.90
2019-03-23T02:15:39.757Z,85.20
2019-03-23T02:18:10.371Z,85.30
2019-03-23T02:20:41.307Z,85.60
2019-03-23T02:23:11.824Z,86.30
2019-03-23T02:25:42.354Z,85.80
2019-03-23T02:28:12.858Z,85.70
2019-03-23T02:30:44.486Z,85.70
2019-03-23T02:35:57.232Z,85.70
2019-03-23T02:38:28.746Z,85.80
2019-03-23T02:40:59.362Z,85.80
2019-03-23T02:43:29.872Z,85.90
2019-03-23T02:46:00.416Z,86.00
2019-03-23T02:48:31.999Z,86.00
2019-03-23T02:51:02.569Z,86.00
2019-03-23T02:53:33.207Z,86.20
2019-03-23T02:56:03.834Z,86.30
2019-03-23T02:58:34.430Z,86.20
2019-03-23T03:01:05.166Z,87.40
2019-03-23T03:03:36.829Z,86.80
2019-03-23T03:06:07.388Z,87.10
2019-03-23T03:08:37.908Z,87.10
2019-03-23T03:11:08.488Z,87.10
2019-03-23T03:13:39.097Z,86.90
2019-03-23T03:16:09.709Z,87.00
2019-03-23T03:18:40.227Z,87.30
2019-03-23T03:21:11.127Z,88.40
2019-03-23T03:23:41.648Z,87.40
2019-03-23T03:26:12.232Z,87.30
2019-03-23T03:28:42.751Z,87.30
2019-03-23T03:31:13.297Z,87.30
2019-03-23T03:33:43.864Z,87.40
2019-03-23T03:36:14.443Z,87.60
2019-03-23T03:38:44.950Z,87.70
2019-03-23T03:41:15.490Z,87.80
2019-03-23T03:43:46.007Z,87.80
2019-03-23T03:46:16.553Z,88.40
2019-03-23T03:48:47.078Z,88.40
2019-03-23T03:51:17.615Z,88.60
2019-03-23T03:53:48.149Z,88.60
2019-03-23T03:56:18.783Z,88.80
2019-03-23T03:58:49.330Z,88.70
2019-03-23T04:01:19.923Z,88.80
2019-03-23T04:03:50.450Z,89.00
2019-03-23T04:06:21.015Z,89.30
2019-03-23T04:08:51.524Z,89.60
2019-03-23T04:11:22.139Z,90.00
2019-03-23T04:13:52.674Z,90.10
2019-03-23T04:16:23.207Z,90.00
2019-03-23T04:18:53.741Z,90.00
2019-03-23T04:21:24.357Z,90.00
2019-03-23T04:23:54.871Z,90.10
2019-03-23T04:26:25.414Z,90.20
2019-03-23T04:28:55.939Z,90.30
2019-03-23T04:31:26.540Z,90.30
2019-03-23T04:33:57.071Z,90.20
2019-03-23T04:36:27.688Z,90.40
2019-03-23T04:38:58.191Z,90.20
2019-03-23T04:41:29.046Z,90.10
2019-03-23T04:43:59.550Z,90.30
2019-03-23T04:46:30.105Z,90.00
2019-03-23T04:49:00.608Z,89.80
2019-03-23T04:51:31.150Z,90.50
2019-03-23T04:54:01.676Z,90.20
2019-03-23T04:56:32.318Z,90.30
2019-03-23T04:59:02.836Z,90.30
2019-03-23T05:01:33.404Z,90.40
2019-03-23T05:04:04.042Z,90.50
2019-03-23T05:06:34.586Z,90.50
2019-03-23T05:09:07.289Z,90.50
2019-03-23T05:11:37.878Z,90.40
2019-03-23T05:14:08.448Z,90.40
2019-03-23T05:16:38.977Z,90.40
2019-03-23T05:19:09.482Z,90.50
2019-03-23T05:21:40.130Z,90.50
2019-03-23T05:24:10.651Z,90.50
2019-03-23T05:26:41.194Z,90.60
2019-03-23T05:29:11.691Z,90.70
2019-03-23T05:31:42.322Z,90.60
2019-03-23T05:34:12.882Z,90.60
2019-03-23T05:36:43.495Z,90.70
2019-03-23T05:39:14.095Z,90.80
2019-03-23T05:41:44.633Z,90.70
2019-03-23T05:44:15.155Z,90.40
2019-03-23T05:46:45.721Z,90.70
2019-03-23T05:49:16.229Z,90.60
2019-03-23T05:51:46.773Z,90.50
2019-03-23T05:54:17.297Z,90.40
2019-03-23T05:56:47.859Z,90.10
2019-03-23T05:59:18.375Z,90.20
2019-03-23T06:01:49.106Z,90.00
2019-03-23T06:04:19.626Z,90.10
2019-03-23T06:06:50.179Z,90.20
2019-03-23T06:09:20.694Z,90.30
2019-03-23T06:11:51.231Z,90.30
2019-03-23T06:14:21.842Z,90.30
2019-03-23T06:16:52.466Z,90.20
2019-03-23T06:19:22.970Z,90.10
2019-03-23T06:21:53.558Z,90.00
2019-03-23T06:24:35.503Z,89.70
2019-03-23T06:27:06.735Z,89.80
2019-03-23T06:29:37.374Z,89.60
2019-03-23T06:32:09.291Z,89.20
2019-03-23T06:34:40.063Z,88.70
2019-03-23T06:37:10.762Z,88.30
2019-03-23T06:39:41.724Z,88.10
2019-03-23T06:42:12.623Z,87.80
2019-03-23T06:44:43.668Z,87.90
2019-03-23T06:47:14.298Z,87.90
2019-03-23T06:49:44.956Z,87.80
2019-03-23T06:52:15.553Z,87.60
2019-03-23T06:54:46.481Z,87.20
2019-03-23T06:57:17.806Z,86.60
2019-03-23T06:59:48.599Z,86.20
2019-03-23T07:02:20.067Z,86.10
2019-03-23T07:04:51.175Z,85.50
2019-03-23T07:07:22.158Z,85.30
2019-03-23T07:09:53.466Z,84.90
2019-03-23T07:12:24.201Z,84.40
2019-03-23T07:14:54.773Z,84.20
2019-03-23T07:17:27.074Z,83.80
2019-03-23T07:19:58.573Z,83.30
2019-03-23T07:22:29.524Z,82.90
2019-03-23T07:25:00.327Z,82.30
2019-03-23T07:27:31.743Z,81.80
2019-03-23T07:30:01.148Z,81.50
2019-03-23T07:32:31.385Z,80.70
2019-03-23T07:35:00.607Z,79.80
2019-03-23T07:37:29.879Z,78.90
2019-03-23T07:40:00.901Z,78.30
2019-03-23T07:42:30.078Z,78.00
2019-03-23T07:44:59.690Z,77.60
2019-03-23T07:47:29.492Z,76.80
2019-03-23T07:50:00.649Z,76.00
2019-03-23T07:52:29.846Z,75.50
2019-03-23T07:55:01.226Z,74.80
2019-03-23T07:57:31.997Z,74.10
2019-03-23T08:00:02.750Z,73.60
2019-03-23T08:02:32.818Z,70.00
2019-03-23T08:05:02.102Z,62.50
2019-03-23T08:07:31.927Z,55.90
2019-03-23T08:10:02.681Z,50.00
2019-03-23T08:12:33.512Z,46.80
2019-03-23T08:15:03.009Z,44.90
2019-03-23T08:17:32.142Z,43.20
2019-03-23T08:20:02.021Z,41.20
2019-03-23T08:22:32.548Z,39.70
2019-03-23T08:25:01.929Z,39.50
2019-03-23T08:27:31.540Z,40.10
2019-03-23T08:30:00.814Z,38.30
2019-03-23T08:32:32.723Z,38.10
2019-03-23T08:35:02.376Z,37.40
2019-03-23T08:37:32.596Z,35.90
2019-03-23T08:40:01.914Z,35.40
2019-03-23T08:42:35.011Z,36.30
2019-03-23T08:45:04.869Z,37.00
2019-03-23T08:47:34.151Z,36.40
2019-03-23T08:50:06.330Z,36.80
2019-03-23T08:52:35.909Z,36.10
2019-03-23T08:55:05.727Z,35.70
2019-03-23T08:57:35.071Z,35.90
2019-03-23T09:00:06.879Z,36.00
2019-03-23T09:02:37.970Z,36.00
2019-03-23T09:05:09.045Z,36.60
2019-03-23T09:07:39.379Z,35.80
2019-03-23T09:10:09.092Z,34.90
2019-03-23T09:12:38.944Z,35.30
2019-03-23T09:15:08.799Z,34.50
2019-03-23T09:17:38.370Z,34.30
2019-03-23T09:20:08.682Z,35.50
2019-03-23T09:22:37.911Z,36.50
2019-03-23T09:25:07.377Z,36.50
2019-03-23T09:27:37.293Z,36.10
2019-03-23T09:30:07.351Z,34.60
2019-03-23T09:32:36.954Z,34.30
2019-03-23T09:35:06.423Z,35.50
2019-03-23T09:37:38.193Z,36.70
2019-03-23T09:40:11.190Z,36.00
2019-03-23T09:42:37.825Z,35.20
2019-03-23T09:45:07.539Z,34.20
2019-03-23T09:47:36.780Z,34.20
2019-03-23T09:50:06.646Z,33.70
2019-03-23T09:52:36.169Z,33.10
2019-03-23T09:55:06.757Z,32.50
2019-03-23T09:57:36.045Z,32.10
2019-03-23T10:00:07.089Z,32.10
2019-03-23T10:02:36.369Z,32.40
2019-03-23T10:05:07.025Z,32.90
2019-03-23T10:07:36.977Z,33.90
2019-03-23T10:10:06.427Z,34.50
2019-03-23T10:12:35.602Z,35.00
2019-03-23T10:15:05.537Z,34.50
2019-03-23T10:17:35.235Z,33.70
2019-03-23T10:20:05.543Z,33.70
2019-03-23T10:22:35.268Z,33.50
2019-03-23T10:25:04.838Z,33.20
2019-03-23T10:27:34.695Z,33.30
2019-03-23T10:30:04.032Z,33.50
2019-03-23T10:32:33.564Z,34.20
2019-03-23T10:35:02.867Z,34.40
2019-03-23T10:37:32.595Z,33.70
2019-03-23T10:40:02.340Z,34.00
2019-03-23T10:42:32.002Z,32.50
2019-03-23T10:45:01.289Z,30.90
2019-03-23T10:47:31.663Z,31.80
2019-03-23T10:50:01.753Z,34.00
2019-03-23T10:52:31.802Z,35.80
2019-03-23T10:55:01.266Z,37.70
2019-03-23T10:57:30.782Z,39.10
2019-03-23T11:00:00.299Z,40.30
2019-03-23T11:02:29.628Z,40.80
2019-03-23T11:04:59.173Z,40.70
2019-03-23T11:07:28.378Z,41.60
2019-03-23T11:09:57.849Z,42.20
2019-03-23T11:12:29.593Z,42.40
2019-03-23T11:14:59.176Z,42.60
2019-03-23T11:17:30.107Z,42.90
2019-03-23T11:19:59.827Z,42.20
2019-03-23T11:22:31.571Z,42.50
2019-03-23T11:25:01.253Z,42.20
2019-03-23T11:27:30.948Z,42.50
2019-03-23T11:30:00.339Z,43.00
2019-03-23T11:32:29.914Z,43.20
2019-03-23T11:34:59.537Z,43.40
2019-03-23T11:37:28.962Z,43.00
2019-03-23T11:39:59.055Z,43.40
2019-03-23T11:42:28.735Z,43.30
2019-03-23T11:44:58.744Z,43.00
2019-03-23T11:47:28.060Z,42.60
2019-03-23T11:49:57.529Z,42.40
2019-03-23T11:52:27.061Z,42.20
2019-03-23T11:54:56.333Z,42.20
2019-03-23T11:57:25.743Z,42.00
2019-03-23T11:59:55.740Z,41.40
2019-03-23T12:02:25.265Z,41.30
2019-03-23T12:04:54.698Z,41.60
2019-03-23T12:07:23.866Z,42.00
2019-03-23T12:09:53.428Z,42.70
2019-03-23T12:15:11.493Z,42.40
2019-03-23T12:17:40.790Z,41.60
2019-03-23T12:20:10.325Z,41.40
2019-03-23T12:22:40.058Z,41.00
2019-03-23T12:25:09.237Z,41.00
2019-03-23T12:27:38.716Z,41.30
2019-03-23T12:30:12.025Z,41.60
2019-03-23T12:32:41.201Z,41.90
2019-03-23T12:35:10.375Z,41.50
2019-03-23T12:37:40.002Z,41.60
2019-03-23T12:40:09.771Z,41.30
2019-03-23T12:42:39.190Z,41.30
2019-03-23T12:45:08.450Z,42.00
2019-03-23T12:47:38.350Z,41.70
2019-03-23T12:50:08.391Z,42.00
2019-03-23T12:52:37.803Z,42.30
2019-03-23T12:55:07.327Z,42.30
2019-03-23T12:57:36.486Z,42.10
2019-03-23T13:00:06.676Z,42.40
2019-03-23T13:02:35.908Z,42.10
2019-03-23T13:05:05.817Z,41.80
2019-03-23T13:07:37.418Z,41.70
2019-03-23T13:10:06.413Z,41.40
2019-03-23T13:12:35.615Z,41.90
2019-03-23T13:15:06.073Z,41.90
2019-03-23T13:17:35.505Z,41.70
2019-03-23T13:20:05.581Z,41.60
2019-03-23T13:22:34.791Z,42.10
2019-03-23T13:25:04.382Z,41.70
2019-03-23T13:27:33.870Z,42.00
2019-03-23T13:30:03.038Z,41.90
2019-03-23T13:32:32.512Z,41.60
2019-03-23T13:35:01.741Z,41.90
2019-03-23T13:37:31.782Z,42.40
2019-03-23T13:40:01.052Z,42.20
2019-03-23T13:42:30.814Z,42.30
2019-03-23T13:45:00.616Z,41.90
2019-03-23T13:47:29.846Z,41.90
2019-03-23T13:49:59.581Z,41.90
2019-03-23T13:52:29.855Z,42.20
2019-03-23T13:54:59.046Z,42.50
2019-03-23T13:57:28.267Z,42.40
2019-03-23T13:59:58.029Z,42.20
2019-03-23T14:02:27.636Z,42.00
2019-03-23T14:04:57.008Z,41.80
2019-03-23T14:07:26.941Z,42.10
2019-03-23T14:09:56.566Z,42.20
2019-03-23T14:12:26.414Z,42.00
2019-03-23T14:14:55.670Z,41.90
2019-03-23T14:17:25.112Z,42.30
2019-03-23T14:19:55.397Z,42.80
2019-03-23T14:22:27.856Z,42.80
2019-03-23T14:24:57.397Z,42.30
2019-03-23T14:27:27.302Z,42.80
2019-03-23T14:29:56.557Z,42.80
2019-03-23T14:32:25.826Z,42.20
2019-03-23T14:34:58.003Z,42.10
2019-03-23T14:37:29.035Z,42.40
2019-03-23T14:39:58.350Z,42.90
2019-03-23T14:42:27.593Z,42.60
2019-03-23T14:44:57.322Z,42.60
2019-03-23T14:47:26.626Z,42.10
2019-03-23T14:49:56.870Z,42.50
2019-03-23T14:52:26.426Z,41.90
2019-03-23T14:54:55.662Z,41.80
2019-03-23T14:57:25.158Z,42.20
2019-03-23T14:59:54.433Z,42.10
2019-03-23T15:02:24.455Z,42.60
2019-03-23T15:04:54.173Z,43.80
2019-03-23T15:07:26.327Z,44.90
2019-03-23T15:09:55.594Z,45.30
2019-03-23T15:12:24.852Z,46.10
2019-03-23T15:14:54.381Z,46.50
2019-03-23T15:17:24.268Z,47.10
2019-03-23T15:19:54.073Z,47.60
2019-03-23T15:22:24.009Z,47.90
2019-03-23T15:24:53.939Z,48.40
2019-03-23T15:27:23.405Z,48.50
2019-03-23T15:29:53.133Z,49.00
2019-03-23T15:32:22.455Z,48.90
2019-03-23T15:34:51.869Z,49.10
2019-03-23T15:37:21.696Z,49.40
2019-03-23T15:39:51.194Z,49.60
2019-03-23T15:42:24.761Z,50.20
2019-03-23T15:44:51.989Z,49.90
2019-03-23T15:47:21.487Z,50.60
2019-03-23T15:49:53.724Z,51.20
2019-03-23T15:52:22.975Z,51.40
2019-03-23T15:54:52.119Z,51.60
2019-03-23T15:57:24.938Z,51.70
2019-03-23T15:59:54.266Z,52.10
2019-03-23T16:02:23.808Z,52.20
2019-03-23T16:04:53.078Z,52.20
2019-03-23T16:07:29.429Z,52.30
2019-03-23T16:09:55.832Z,52.70
2019-03-23T16:12:34.235Z,53.30
2019-03-23T16:14:56.072Z,53.50
2019-03-23T16:17:25.809Z,53.20
2019-03-23T16:19:57.184Z,53.10
2019-03-23T16:22:27.108Z,53.20
2019-03-23T16:24:56.377Z,53.50
2019-03-23T16:27:26.394Z,53.60
2019-03-23T16:29:55.731Z,54.40
2019-03-23T16:32:25.821Z,53.80
2019-03-23T16:34:55.532Z,54.20
2019-03-23T16:37:24.799Z,54.50
2019-03-23T16:39:54.027Z,55.20
2019-03-23T16:42:24.307Z,56.00
2019-03-23T16:44:53.598Z,56.30
2019-03-23T16:47:23.562Z,56.70
2019-03-23T16:49:52.895Z,57.20
2019-03-23T16:52:22.523Z,57.40
2019-03-23T16:54:51.762Z,57.70
2019-03-23T16:57:23.722Z,58.20
2019-03-23T16:59:53.459Z,58.50
2019-03-23T17:02:23.090Z,58.90
2019-03-23T17:04:53.048Z,59.20
2019-03-23T17:07:22.547Z,59.60
2019-03-23T17:09:52.073Z,59.70
2019-03-23T17:12:21.982Z,60.20
2019-03-23T17:14:51.262Z,60.40
2019-03-23T17:17:20.511Z,60.80
2019-03-23T17:19:50.103Z,61.10
2019-03-23T17:22:19.945Z,61.40
2019-03-23T17:24:49.585Z,61.70
2019-03-23T17:27:19.548Z,62.00
2019-03-23T17:29:49.250Z,62.40
2019-03-23T17:32:18.763Z,62.80
2019-03-23T17:34:52.111Z,63.40
2019-03-23T17:37:21.847Z,63.60
2019-03-23T17:39:51.038Z,63.80
2019-03-23T17:42:21.518Z,64.30
2019-03-23T17:44:51.075Z,64.80
2019-03-23T17:47:20.566Z,65.10
2019-03-23T17:49:50.165Z,65.40
2019-03-23T17:52:20.017Z,65.90
2019-03-23T17:54:49.941Z,66.40
2019-03-23T17:57:20.018Z,66.70
2019-03-23T17:59:49.622Z,67.00
2019-03-23T18:02:19.261Z,68.10
2019-03-23T18:04:49.661Z,67.60
2019-03-23T18:07:19.426Z,67.90
2019-03-23T18:09:49.769Z,68.30
2019-03-23T18:12:19.734Z,68.70
2019-03-23T18:14:49.657Z,69.10
2019-03-23T18:17:20.555Z,69.40
2019-03-23T18:19:49.920Z,69.60
2019-03-23T18:22:19.767Z,69.50
2019-03-23T18:24:49.221Z,69.00
2019-03-23T18:27:18.642Z,68.30
2019-03-23T18:29:48.099Z,68.00
2019-03-23T18:32:17.754Z,67.70
2019-03-23T18:34:47.439Z,67.30
2019-03-23T18:37:17.380Z,66.90
2019-03-23T18:39:46.980Z,66.60
2019-03-23T18:42:18.185Z,66.40
2019-03-23T18:44:47.666Z,66.30
2019-03-23T18:47:17.002Z,66.10
2019-03-23T18:49:46.650Z,66.20
2019-03-23T18:52:15.925Z,66.20
2019-03-23T18:54:46.562Z,66.40
2019-03-23T18:57:15.749Z,66.70
2019-03-23T18:59:45.709Z,66.90
2019-03-23T19:02:16.090Z,67.00
2019-03-23T19:04:46.442Z,67.20
2019-03-23T19:07:16.022Z,67.40
2019-03-23T19:09:45.473Z,67.50
2019-03-23T19:12:15.524Z,67.90
2019-03-23T19:14:44.915Z,68.30
2019-03-23T19:17:16.322Z,68.50
2019-03-23T19:19:48.642Z,68.80
2019-03-23T19:22:18.902Z,69.10
2019-03-23T19:24:53.132Z,69.30
2019-03-23T19:27:24.602Z,69.50
2019-03-23T19:29:57.199Z,69.70
2019-03-23T19:32:26.517Z,70.10
2019-03-23T19:35:00.233Z,70.50
2019-03-23T19:37:32.974Z,70.80
2019-03-23T19:40:02.338Z,71.00
2019-03-23T19:42:31.866Z,71.30
2019-03-23T19:45:01.668Z,71.60
2019-03-23T19:47:31.058Z,72.00
2019-03-23T19:50:01.065Z,72.30
2019-03-23T19:52:30.558Z,72.50
2019-03-23T19:55:01.292Z,72.80
2019-03-23T19:57:31.289Z,72.70
2019-03-23T20:00:00.858Z,72.90
2019-03-23T20:02:31.858Z,73.00
2019-03-23T20:05:01.688Z,73.10
2019-03-23T20:07:33.355Z,73.30
2019-03-23T20:10:02.587Z,73.60
2019-03-23T20:12:32.225Z,73.90
2019-03-23T20:15:01.874Z,74.00
2019-03-23T20:17:32.158Z,74.20
2019-03-23T20:20:01.503Z,74.40
2019-03-23T20:22:30.857Z,74.50
2019-03-23T20:25:01.709Z,74.70
2019-03-23T20:27:31.232Z,74.90
2019-03-23T20:30:00.794Z,75.10
2019-03-23T20:32:30.593Z,75.40
2019-03-23T20:35:00.822Z,75.70
2019-03-23T20:37:30.110Z,75.90
2019-03-23T20:40:00.187Z,76.00
2019-03-23T20:42:29.915Z,76.10
2019-03-23T20:44:59.789Z,76.30
2019-03-23T20:47:29.621Z,76.60
2019-03-23T20:49:59.611Z,76.70
2019-03-23T20:52:29.149Z,76.80
2019-03-23T20:54:58.433Z,77.60
2019-03-23T20:57:36.974Z,77.20
2019-03-23T21:00:00.121Z,77.40
2019-03-23T21:02:29.851Z,77.60
2019-03-23T21:04:59.287Z,77.80
2019-03-23T21:07:28.777Z,77.90
2019-03-23T21:09:58.904Z,78.00
2019-03-23T21:12:28.123Z,78.20
2019-03-23T21:14:57.891Z,78.30
2019-03-23T21:17:27.540Z,78.60
2019-03-23T21:19:57.589Z,78.90
2019-03-23T21:22:27.019Z,79.20
2019-03-23T21:24:56.983Z,79.50
2019-03-23T21:27:26.521Z,79.50
2019-03-23T21:29:56.511Z,79.80
2019-03-23T21:32:25.815Z,80.10
2019-03-23T21:34:55.100Z,80.10
2019-03-23T21:37:24.547Z,80.20
2019-03-23T21:39:54.502Z,80.40
2019-03-23T21:42:23.727Z,81.50
2019-03-23T21:44:53.230Z,80.70
2019-03-23T21:47:22.952Z,81.00
2019-03-23T21:49:52.381Z,81.20
2019-03-23T21:52:22.803Z,81.50
2019-03-23T21:54:52.608Z,81.80
2019-03-23T21:57:22.478Z,81.90
2019-03-23T21:59:51.945Z,81.90
2019-03-23T22:02:21.640Z,82.40
2019-03-23T22:04:50.941Z,82.60
2019-03-23T22:07:20.602Z,82.70
2019-03-23T22:09:50.136Z,82.80
2019-03-23T22:12:19.958Z,83.10
2019-03-23T22:14:50.253Z,83.10
2019-03-23T22:17:20.079Z,83.20
2019-03-23T22:19:49.721Z,83.10
2019-03-23T22:22:20.087Z,83.10
2019-03-23T22:24:49.795Z,84.00
2019-03-23T22:27:19.384Z,83.30
2019-03-23T22:29:48.883Z,83.60
2019-03-23T22:32:18.761Z,83.70
2019-03-23T22:34:49.303Z,83.90
2019-03-23T22:37:19.350Z,84.30
2019-03-23T22:39:48.830Z,84.20
2019-03-23T22:42:18.213Z,84.00
2019-03-23T22:44:52.540Z,84.30
2019-03-23T22:47:19.002Z,84.40
2019-03-23T22:49:49.575Z,84.40
2019-03-23T22:52:19.238Z,84.40
2019-03-23T22:54:49.521Z,84.50
2019-03-23T22:57:19.738Z,84.80
2019-03-23T22:59:49.635Z,84.90
2019-03-23T23:02:22.668Z,85.30
2019-03-23T23:04:52.371Z,85.30
2019-03-23T23:07:27.662Z,85.40
2019-03-23T23:09:57.648Z,85.80
2019-03-23T23:12:27.467Z,86.10
2019-03-23T23:15:04.180Z,86.30
2019-03-23T23:17:28.509Z,86.40
2019-03-23T23:19:58.100Z,86.40
2019-03-23T23:22:27.480Z,86.50
2019-03-23T23:24:57.327Z,86.60
2019-03-23T23:27:26.726Z,86.80
2019-03-23T23:29:56.158Z,86.80
2019-03-23T23:32:25.714Z,87.00
2019-03-23T23:34:55.001Z,87.20
2019-03-23T23:37:24.994Z,87.30
2019-03-23T23:39:54.644Z,87.50
2019-03-23T23:42:24.506Z,87.40
2019-03-23T23:44:53.788Z,87.50
2019-03-23T23:47:23.372Z,87.70
2019-03-23T23:49:53.195Z,87.60
2019-03-23T23:52:23.367Z,87.60
2019-03-23T23:54:53.153Z,87.70
2019-03-23T23:57:22.660Z,88.00
2019-03-23T23:59:52.184Z,88.20
